KNGU

Details ICAO KNGU (NGU)
Name Norfolk Naval Air Station
Region United States
Timezone America/New_York (UTC-5.0)
Plans Departing 20
Arriving 10
Stats Elevation 15 ft / 5 m (AMSL)
Location 36.937458° -76.290464°
Runways 1
Magnetic Variation 10.865° W
Sunrise 2017-12-16 12:13:11 UTC / 2017-12-16 07:13:11 Local
Sunset 2017-12-16 21:51:22 UTC / 2017-12-16 16:51:22 Local
Advertisement - Login to hide

Runways

ID Width Length Bearing (true) Bearing (mag) Surface Threshold Offset Overrun Length
10 200 ft / 61 m 7,070 ft / 2,155 m 89.92° 100.79° Asphalt 187 ft / 57 m 994 ft / 303 m
28 200 ft / 61 m 7,070 ft / 2,155 m 269.93° 280.80° Asphalt 171 ft / 52 m 463 ft / 141 m

Map

Weather


0- 5 10 15 20 25 30 35+ Temperature / ° C

Clouds and Precipitation
Forecast for 2017-12-16 18:00 UTC. Updated 19 minutes ago

Ground ~20,000 ft ~40,000 ft Winds

METAR

KNGU 161259Z 00000KT 8SM FEW040 M01/M04 A3023 RMK AO2 SLP238 T10061044 $

TAF

TAF TAF KNGU 1607/1707 28009KT 9999 SCT250 QNH2999INS FM161200 VRB05KT 9999 SKC QNH3012INS FM161900 24008KT 9999 FEW250 QNH3016INS FM170200 VRB05KT 9999 SCT250 QNH3019INS TM01/1610Z T09/1619Z FN00170

Frequencies

Recorded 118.42 MHz ATIS
Ground 121.80 MHz CHAMBERS GND
Tower 126.37 MHz CHAMBERS TWR
Departure 125.20 MHz DEP
Clearance 120.70 MHz CLNC DEL
Tower 124.30 MHz CHAMBERS TWR
Approach 118.90 MHz APP
Warning: Do not use this data for real-world aviation or navigation. No guarantee of current accuracy is given.